Time;durP1;ratioP1;P1;durP2;ratioP2;P2;SDS_P1;SDS_P2;PMS_P1;PMS_P2;Temp;Humidity;BMP_temperature;BMP_pressure;BME280_temperature;BME280_humidity;BME280_pressure;Samples;Min_cycle;Max_cycle;Signal;HPM_P1;HPM_P2
2023/10/01 00:01:40;;;;;;;7.50;4.93;;;;;;;20.59;44.59;99976.94;5125767;28;20043;-62
2023/10/01 00:04:07;;;;;;;7.85;4.65;;;;;;;20.64;44.48;99969.03;5120815;28;20244;-62
2023/10/01 00:06:34;;;;;;;6.85;4.35;;;;;;;20.62;44.57;99963.06;5121350;28;20028;-63
2023/10/01 00:09:00;;;;;;;6.90;4.78;;;;;;;20.58;44.79;99967.22;5120533;28;20337;-62
2023/10/01 00:11:27;;;;;;;7.50;4.82;;;;;;;20.52;45.12;99967.31;5121448;28;20066;-62
2023/10/01 00:13:53;;;;;;;8.80;5.07;;;;;;;20.55;45.35;99965.00;5128907;28;20076;-62
2023/10/01 00:16:18;;;;;;;7.32;4.28;;;;;;;20.55;45.10;99961.47;5123487;28;20036;-63
2023/10/01 00:18:46;;;;;;;6.32;4.55;;;;;;;20.38;45.57;99956.63;5121785;28;20020;-62
2023/10/01 00:21:12;;;;;;;10.30;4.88;;;;;;;20.33;45.92;99952.97;5119502;28;20039;-62
2023/10/01 00:23:38;;;;;;;7.85;4.10;;;;;;;20.38;45.80;99955.81;5122956;28;20309;-64
2023/10/01 00:26:04;;;;;;;6.25;4.35;;;;;;;20.53;45.61;99959.00;5130505;28;20336;-64
2023/10/01 00:28:29;;;;;;;9.05;4.50;;;;;;;20.60;45.35;99959.75;5121641;28;20039;-64
2023/10/01 00:30:56;;;;;;;11.65;4.97;;;;;;;20.57;45.38;99965.59;5121453;28;20027;-64
2023/10/01 00:33:22;;;;;;;9.90;4.95;;;;;;;20.68;45.01;99954.09;5121051;28;20034;-64
2023/10/01 00:35:48;;;;;;;6.28;4.20;;;;;;;20.74;44.81;99960.44;5130349;28;20047;-64
2023/10/01 00:38:14;;;;;;;6.63;4.22;;;;;;;20.83;44.77;99951.06;5120844;28;20035;-65
2023/10/01 00:40:45;;;;;;;5.70;4.22;;;;;;;20.83;44.51;99951.06;5130253;28;20089;-65
2023/10/01 00:43:11;;;;;;;6.78;4.45;;;;;;;20.89;44.39;99949.34;5129662;28;20221;-64
2023/10/01 00:45:37;;;;;;;6.82;4.32;;;;;;;20.73;44.83;99948.88;5120334;28;20106;-64
2023/10/01 00:48:06;;;;;;;10.93;4.90;;;;;;;20.75;44.75;99945.94;5130510;28;20028;-64
2023/10/01 00:50:32;;;;;;;7.95;4.50;;;;;;;20.77;44.74;99951.13;5121346;28;20032;-64
2023/10/01 00:52:58;;;;;;;8.82;4.22;;;;;;;20.73;44.96;99945.34;5121833;28;20023;-64
2023/10/01 00:55:24;;;;;;;6.93;4.35;;;;;;;20.68;45.14;99947.88;5120702;28;20055;-64
2023/10/01 00:57:53;;;;;;;10.75;4.75;;;;;;;20.58;45.28;99948.41;5121059;28;20023;-64
2023/10/01 01:00:19;;;;;;;9.45;4.45;;;;;;;20.68;45.33;99947.88;5121033;28;20074;-64
2023/10/01 01:03:09;;;;;;;9.50;5.10;;;;;;;20.68;44.91;99937.94;5120776;28;20035;-64
2023/10/01 01:05:35;;;;;;;7.57;4.50;;;;;;;20.62;45.23;99944.22;5120238;28;20093;-64
2023/10/01 01:08:28;;;;;;;8.57;4.45;;;;;;;20.68;45.27;99937.94;5122115;28;20062;-64
2023/10/01 01:10:53;;;;;;;6.63;3.92;;;;;;;20.75;45.02;99935.19;5125737;27;20430;-64
2023/10/01 01:13:21;;;;;;;7.13;4.70;;;;;;;20.77;44.98;99938.47;5125358;27;20085;-65
2023/10/01 01:15:51;;;;;;;8.65;5.00;;;;;;;20.80;44.95;99929.97;5134180;27;20043;-64
2023/10/01 01:18:20;;;;;;;10.25;5.82;;;;;;;20.79;45.17;99933.69;5132020;27;20130;-64
2023/10/01 01:20:48;;;;;;;5.53;4.25;;;;;;;20.76;44.71;99925.25;5124674;27;20043;-65
2023/10/01 01:23:18;;;;;;;8.68;5.00;;;;;;;20.80;44.78;99931.81;5124874;27;20027;-62
2023/10/01 01:25:45;;;;;;;5.97;4.18;;;;;;;20.82;44.59;99929.75;5133809;27;20233;-62
2023/10/01 01:28:15;;;;;;;7.80;4.63;;;;;;;20.82;44.58;99932.47;5123600;27;20132;-62
2023/10/01 01:30:42;;;;;;;10.30;4.95;;;;;;;20.81;44.44;99925.44;5124091;27;20032;-61
2023/10/01 01:33:13;;;;;;;10.15;4.88;;;;;;;20.86;44.28;99930.97;5124101;27;20039;-63
2023/10/01 01:35:42;;;;;;;8.18;4.78;;;;;;;20.85;44.31;99929.31;5123871;27;20051;-64
2023/10/01 01:38:09;;;;;;;9.10;4.30;;;;;;;20.82;44.27;99927.06;5132726;27;20091;-64
2023/10/01 01:40:40;;;;;;;5.82;4.35;;;;;;;20.75;44.44;99927.13;5124607;27;20035;-64
2023/10/01 01:46:11;;;;;;;6.90;4.88;;;;;;;20.67;44.90;99930.09;5082959;27;20055;-63
2023/10/01 01:48:40;;;;;;;6.72;4.28;;;;;;;20.65;45.13;99927.63;5124189;27;20098;-64
2023/10/01 01:51:06;;;;;;;5.75;4.25;;;;;;;20.72;44.71;99931.06;5123489;27;20352;-64
2023/10/01 01:53:41;;;;;;;5.90;4.50;;;;;;;20.75;44.80;99929.81;5124267;27;20036;-63
2023/10/01 01:56:08;;;;;;;7.68;4.10;;;;;;;20.73;44.71;99926.50;5123403;27;20034;-64
2023/10/01 01:58:35;;;;;;;8.65;4.75;;;;;;;20.71;44.79;99921.34;5122508;27;20024;-64
2023/10/01 02:01:08;;;;;;;13.68;4.78;;;;;;;20.70;44.92;99924.28;5123066;27;20103;-64
2023/10/01 02:03:44;;;;;;;5.28;3.85;;;;;;;20.70;44.79;99926.97;5132912;27;20031;-64
2023/10/01 02:06:09;;;;;;;8.35;4.60;;;;;;;20.72;44.89;99931.06;5124203;27;20311;-64
2023/10/01 02:08:49;;;;;;;8.77;4.28;;;;;;;20.68;45.01;99931.75;5123332;27;20039;-64
2023/10/01 02:11:19;;;;;;;6.40;4.20;;;;;;;20.66;45.00;99931.16;5123911;27;20102;-64
2023/10/01 02:13:50;;;;;;;6.43;4.47;;;;;;;20.66;45.30;99937.34;5123869;27;20038;-64
2023/10/01 02:16:50;;;;;;;8.25;4.22;;;;;;;20.70;45.06;99929.66;5122314;27;20059;-64
2023/10/01 02:19:14;;;;;;;7.28;4.63;;;;;;;20.71;44.78;99931.31;5117532;27;20341;-64
2023/10/01 02:21:48;;;;;;;7.00;4.30;;;;;;;20.67;45.07;99936.31;5122728;27;20031;-64
2023/10/01 02:24:37;;;;;;;7.45;4.95;;;;;;;20.67;44.80;99932.78;5122533;27;20267;-64
2023/10/01 02:27:04;;;;;;;8.88;4.32;;;;;;;20.66;45.19;99925.75;5125440;27;20117;-64
2023/10/01 02:29:32;;;;;;;8.63;4.95;;;;;;;20.71;44.78;99929.44;5108726;28;20336;-64
2023/10/01 02:32:04;;;;;;;8.30;4.70;;;;;;;20.76;44.88;99930.63;5122493;27;20078;-64
2023/10/01 02:34:31;;;;;;;5.93;3.95;;;;;;;20.81;44.82;99920.88;5121952;27;20114;-64
2023/10/01 02:36:58;;;;;;;9.60;5.13;;;;;;;20.82;44.78;99922.50;5122304;27;20062;-64
2023/10/01 02:39:29;;;;;;;6.65;4.03;;;;;;;20.84;44.82;99922.28;5121640;27;20337;-64
2023/10/01 02:44:41;;;;;;;7.80;4.45;;;;;;;20.90;44.51;99922.22;5122046;27;20043;-62
2023/10/01 02:47:18;;;;;;;7.00;3.70;;;;;;;20.87;44.84;99917.28;5123030;27;20043;-62
2023/10/01 02:49:52;;;;;;;6.75;4.43;;;;;;;20.87;44.87;99914.59;5130890;27;20092;-63
2023/10/01 02:52:25;;;;;;;6.65;4.35;;;;;;;20.83;44.91;99924.16;5121912;27;20035;-64
2023/10/01 02:54:57;;;;;;;6.63;4.05;;;;;;;20.80;45.12;99905.75;5121164;27;20051;-64
2023/10/01 02:57:26;;;;;;;9.82;4.68;;;;;;;20.78;45.11;99907.00;5121716;27;20333;-64
2023/10/01 03:02:50;;;;;;;7.32;4.28;;;;;;;20.75;45.32;99910.16;5126651;27;20080;-64
2023/10/01 03:05:28;;;;;;;5.40;4.18;;;;;;;20.68;45.43;99902.16;5130968;27;20348;-65
2023/10/01 03:07:57;;;;;;;7.68;4.60;;;;;;;20.70;45.78;99905.44;5123213;27;20035;-62
2023/10/01 03:10:31;;;;;;;10.13;4.68;;;;;;;20.65;45.77;99905.28;5121715;27;20044;-63
2023/10/01 03:12:58;;;;;;;11.02;4.60;;;;;;;20.62;46.08;99903.88;5121922;27;21085;-63
2023/10/01 03:15:27;;;;;;;8.13;4.45;;;;;;;20.60;46.14;99900.56;5124451;27;20281;-63
2023/10/01 03:17:57;;;;;;;6.35;4.28;;;;;;;20.52;46.36;99878.53;5127676;27;20313;-64
2023/10/01 03:23:35;;;;;;;6.25;4.45;;;;;;;20.65;46.19;99905.28;5121519;27;20271;-63
2023/10/01 03:26:07;;;;;;;5.70;3.97;;;;;;;20.67;45.98;99911.28;5122405;27;20058;-62
2023/10/01 03:31:23;;;;;;;6.60;3.92;;;;;;;20.65;46.00;99911.50;5121748;27;20042;-62
2023/10/01 03:33:54;;;;;;;6.78;4.35;;;;;;;20.66;45.94;99917.69;5121169;27;20039;-63
2023/10/01 03:36:32;;;;;;;7.13;3.90;;;;;;;20.70;46.05;99914.34;5121984;27;20229;-62
2023/10/01 03:39:07;;;;;;;8.93;4.82;;;;;;;20.69;46.09;99917.25;5121230;27;20134;-62
2023/10/01 03:41:52;;;;;;;6.53;4.60;;;;;;;20.70;45.84;99924.28;5120928;27;20039;-62
2023/10/01 03:44:40;;;;;;;5.30;4.00;;;;;;;20.73;46.01;99929.22;5120913;27;20032;-62
2023/10/01 03:47:04;;;;;;;8.18;4.47;;;;;;;20.71;45.94;99925.91;5122064;27;20101;-62
2023/10/01 03:49:33;;;;;;;8.18;4.60;;;;;;;20.74;46.05;99925.47;5121780;27;20284;-62
2023/10/01 03:51:58;;;;;;;5.72;4.18;;;;;;;20.75;46.09;99923.59;5123004;28;20058;-61
2023/10/01 03:57:17;;;;;;;5.35;3.88;;;;;;;20.84;46.12;99923.13;5093493;28;20047;-62
2023/10/01 03:59:53;;;;;;;8.27;4.50;;;;;;;20.89;46.11;99925.94;5121037;28;20031;-63
2023/10/01 04:02:28;;;;;;;9.13;4.60;;;;;;;20.92;45.99;99938.97;5121291;28;20069;-64
2023/10/01 04:04:57;;;;;;;7.30;4.93;;;;;;;20.93;46.10;99940.59;5120941;28;20053;-63
2023/10/01 04:07:42;;;;;;;9.70;4.70;;;;;;;21.01;45.86;99936.78;5122247;28;20129;-63
2023/10/01 04:10:31;;;;;;;8.68;4.70;;;;;;;21.03;46.21;99937.38;5122036;28;20036;-63
2023/10/01 04:13:12;;;;;;;9.52;4.72;;;;;;;21.06;46.13;99941.50;5121060;28;20224;-63
2023/10/01 04:15:41;;;;;;;12.20;5.38;;;;;;;21.10;45.91;99948.06;5121579;28;20257;-63
2023/10/01 04:20:47;;;;;;;12.27;6.10;;;;;;;21.02;46.22;99954.59;5122113;28;20067;-64
2023/10/01 04:23:21;;;;;;;9.57;5.40;;;;;;;21.00;46.00;99945.91;5120872;28;20039;-64
2023/10/01 04:25:47;;;;;;;11.25;7.20;;;;;;;20.98;46.18;99946.13;5127585;28;20230;-63
2023/10/01 04:28:12;;;;;;;8.88;5.68;;;;;;;20.86;46.48;99942.56;5122205;28;20657;-63
2023/10/01 04:30:44;;;;;;;7.30;4.78;;;;;;;20.83;46.22;99952.94;5129287;28;20034;-63
2023/10/01 04:33:23;;;;;;;11.38;5.18;;;;;;;20.70;46.73;99949.31;5121773;28;20066;-63
2023/10/01 04:35:51;;;;;;;12.23;5.80;;;;;;;20.73;46.75;99948.03;5122410;28;20399;-63
2023/10/01 04:38:20;;;;;;;7.10;4.82;;;;;;;20.64;47.11;99949.38;5122156;28;20039;-64
2023/10/01 04:40:48;;;;;;;12.52;4.60;;;;;;;20.65;47.26;99951.03;5121422;28;20156;-63
2023/10/01 04:43:19;;;;;;;10.32;5.00;;;;;;;20.68;47.56;99964.03;5122445;27;20432;-63
2023/10/01 04:45:45;;;;;;;16.92;5.88;;;;;;;20.67;47.53;99973.97;5124151;27;20261;-63
2023/10/01 04:48:45;;;;;;;10.18;4.50;;;;;;;20.71;47.47;99966.28;5134442;27;20032;-63
2023/10/01 04:51:07;;;;;;;7.55;4.28;;;;;;;20.70;47.44;99978.91;5123600;27;20074;-63
2023/10/01 04:53:33;;;;;;;7.65;4.63;;;;;;;20.73;47.35;99972.25;5124901;27;20043;-63
2023/10/01 04:56:05;;;;;;;11.88;5.72;;;;;;;20.78;47.40;99980.50;5124359;27;20054;-63
2023/10/01 04:58:38;;;;;;;6.25;5.07;;;;;;;20.82;47.24;99983.59;5124777;27;20038;-63
2023/10/01 05:01:11;;;;;;;8.27;4.70;;;;;;;20.89;47.16;99995.09;5134372;27;20047;-64
2023/10/01 05:03:40;;;;;;;6.35;4.13;;;;;;;20.90;47.12;99996.75;5124487;27;20098;-63
2023/10/01 05:06:11;;;;;;;6.25;4.28;;;;;;;20.83;47.33;99999.50;5124875;27;20031;-63
2023/10/01 05:08:40;;;;;;;8.23;4.85;;;;;;;20.86;47.09;100000.94;5125009;27;20054;-63
2023/10/01 05:11:16;;;;;;;7.82;4.32;;;;;;;20.99;46.98;100011.56;5124729;27;20043;-63
2023/10/01 05:13:44;;;;;;;8.63;5.13;;;;;;;20.86;47.22;100000.94;5130776;27;20106;-63
2023/10/01 05:16:14;;;;;;;9.65;5.55;;;;;;;20.89;47.47;100006.69;5124609;27;20044;-63
2023/10/01 05:18:43;;;;;;;9.05;4.47;;;;;;;20.97;47.19;100009.09;5124180;27;20027;-64
2023/10/01 05:21:18;;;;;;;6.65;4.70;;;;;;;20.96;47.04;100007.44;5129489;27;20035;-63
2023/10/01 05:23:45;;;;;;;8.68;4.82;;;;;;;21.13;47.13;100015.75;5132669;27;20046;-63
2023/10/01 05:26:11;;;;;;;33.40;5.25;;;;;;;21.21;46.67;100015.47;5125627;27;20039;-64
2023/10/01 05:28:41;;;;;;;12.20;5.28;;;;;;;21.22;46.75;100005.50;5132424;27;20046;-63
2023/10/01 05:31:14;;;;;;;6.88;4.35;;;;;;;21.31;46.67;100012.28;5124624;27;20043;-63
2023/10/01 05:33:42;;;;;;;;;;;;;;;21.41;46.60;100011.75;5126087;27;20032;-63
2023/10/01 05:36:08;;;;;;;7.68;4.53;;;;;;;21.42;46.73;100008.81;5125866;27;19946;-63
2023/10/01 05:38:35;;;;;;;4.75;4.00;;;;;;;21.57;46.58;100011.13;5130767;27;20027;-63
2023/10/01 05:41:09;;;;;;;7.15;4.60;;;;;;;21.75;45.35;100007.56;5124035;27;20101;-63
2023/10/01 05:43:37;;;;;;;5.47;4.22;;;;;;;21.88;45.30;100010.09;5123605;27;20035;-64
2023/10/01 05:46:08;;;;;;;9.77;5.30;;;;;;;22.08;44.74;99999.88;5130195;27;20397;-63
2023/10/01 05:48:39;;;;;;;9.02;4.40;;;;;;;22.24;43.62;100014.56;5126621;27;20028;-63
2023/10/01 05:51:12;;;;;;;8.48;4.55;;;;;;;22.35;42.78;100002.97;5123754;27;20035;-63
2023/10/01 05:53:38;;;;;;;7.75;4.50;;;;;;;22.42;42.52;100008.25;5123618;27;20054;-63
2023/10/01 05:56:07;;;;;;;9.30;4.30;;;;;;;22.59;43.14;100015.44;5133521;27;20327;-63
2023/10/01 05:58:34;;;;;;;11.68;4.60;;;;;;;22.76;42.24;100009.34;5124638;27;20027;-64
2023/10/01 06:01:21;;;;;;;6.13;4.63;;;;;;;22.90;41.84;100008.91;5123297;27;20059;-62
2023/10/01 06:03:48;;;;;;;10.48;5.15;;;;;;;23.04;41.97;100009.50;5123000;27;20095;-63
2023/10/01 06:06:23;;;;;;;9.32;4.65;;;;;;;23.02;41.26;100013.50;5124444;27;20040;-63
2023/10/01 06:08:49;;;;;;;7.68;4.70;;;;;;;22.82;41.47;100013.81;5124147;27;20173;-64
2023/10/01 06:11:16;;;;;;;9.40;5.00;;;;;;;22.71;41.75;100015.44;5123621;27;20229;-63
2023/10/01 06:13:49;;;;;;;6.32;5.20;;;;;;;22.52;42.35;100020.13;5123379;27;20028;-63
2023/10/01 06:16:23;;;;;;;16.42;5.47;;;;;;;22.59;41.83;100017.31;5124125;27;20259;-63
2023/10/01 06:18:51;;;;;;;8.23;4.65;;;;;;;22.59;41.86;100017.31;5123895;27;20039;-63
2023/10/01 06:21:23;;;;;;;8.88;4.35;;;;;;;22.58;41.92;100011.09;5132473;27;20038;-63
2023/10/01 06:23:49;;;;;;;9.23;4.43;;;;;;;22.54;42.10;100025.28;5123388;27;20153;-63
2023/10/01 06:26:29;;;;;;;7.82;4.20;;;;;;;22.53;42.14;100031.75;5123510;27;20077;-63
2023/10/01 06:28:56;;;;;;;6.38;4.53;;;;;;;22.53;42.10;100037.97;5123710;27;20251;-63
2023/10/01 06:31:23;;;;;;;8.30;4.80;;;;;;;22.46;42.73;100036.44;5123330;27;20077;-63
2023/10/01 06:33:53;;;;;;;8.75;4.80;;;;;;;22.38;42.70;100028.66;5123170;27;20038;-62
2023/10/01 06:36:23;;;;;;;8.05;4.50;;;;;;;22.39;43.02;100039.22;5122405;27;20039;-62
2023/10/01 06:38:49;;;;;;;8.23;4.85;;;;;;;22.35;42.83;100038.06;5122704;27;20031;-63
2023/10/01 06:41:16;;;;;;;8.15;4.22;;;;;;;22.50;43.04;100034.91;5122943;27;20043;-64
2023/10/01 06:43:49;;;;;;;10.82;5.22;;;;;;;22.62;43.26;100028.47;5122779;27;20067;-63
2023/10/01 06:46:19;;;;;;;15.02;5.25;;;;;;;22.61;42.82;100028.69;5123191;27;20042;-63
2023/10/01 06:48:47;;;;;;;13.88;4.57;;;;;;;22.62;43.51;100043.84;5123165;27;20035;-63
2023/10/01 06:51:14;;;;;;;10.55;5.15;;;;;;;22.61;43.94;100053.00;5122955;27;20047;-63
2023/10/01 06:53:47;;;;;;;8.00;4.60;;;;;;;22.66;43.85;100044.19;5122003;27;20039;-63
2023/10/01 06:56:16;;;;;;;9.05;4.57;;;;;;;22.65;43.00;100043.38;5122155;27;20670;-63
2023/10/01 06:59:12;;;;;;;6.20;4.63;;;;;;;22.62;43.64;100049.22;5123023;27;20102;-63
2023/10/01 07:01:35;;;;;;;8.23;4.40;;;;;;;22.61;43.92;100042.19;5122605;27;20042;-64
2023/10/01 07:04:02;;;;;;;7.38;5.50;;;;;;;22.79;43.62;100049.38;5127504;27;20448;-63
2023/10/01 07:06:28;;;;;;;8.32;4.90;;;;;;;23.07;43.17;100046.84;5125350;27;20045;-64
2023/10/01 07:08:54;;;;;;;9.13;4.88;;;;;;;23.28;42.37;100048.09;5122043;27;20039;-63
2023/10/01 07:11:20;;;;;;;11.48;5.20;;;;;;;23.24;41.84;100049.63;5122079;27;20107;-63
2023/10/01 07:13:47;;;;;;;6.80;4.03;;;;;;;23.18;41.97;100053.28;5121713;27;20031;-64
2023/10/01 07:16:17;;;;;;;8.38;5.10;;;;;;;23.10;42.08;100051.75;5122236;27;20059;-63
2023/10/01 07:18:43;;;;;;;6.15;4.57;;;;;;;23.03;42.52;100053.75;5122138;27;20793;-63
2023/10/01 07:21:11;;;;;;;8.80;5.05;;;;;;;22.93;42.18;100062.47;5122656;27;20055;-63
2023/10/01 07:23:37;;;;;;;7.00;5.03;;;;;;;22.91;42.20;100055.66;5129619;27;20039;-63
2023/10/01 07:26:03;;;;;;;8.30;4.82;;;;;;;22.82;42.18;100057.03;5121371;27;20206;-63
2023/10/01 07:28:30;;;;;;;8.35;5.05;;;;;;;22.76;42.82;100061.44;5121961;27;20440;-62
2023/10/01 07:31:01;;;;;;;8.38;4.53;;;;;;;22.70;42.13;100064.25;5125036;27;20367;-62
2023/10/01 07:33:28;;;;;;;7.68;4.97;;;;;;;22.61;42.51;100061.91;5125281;27;20024;-62
2023/10/01 07:36:01;;;;;;;8.35;4.97;;;;;;;22.59;42.72;100071.28;5122761;27;20367;-63
2023/10/01 07:38:28;;;;;;;7.65;5.25;;;;;;;22.55;43.63;100070.94;5121446;27;20114;-64
2023/10/01 07:41:07;;;;;;;7.43;4.78;;;;;;;22.52;42.87;100060.59;5102895;28;20047;-63
2023/10/01 07:43:33;;;;;;;14.63;4.88;;;;;;;22.66;43.00;100079.28;5120201;27;20094;-63
2023/10/01 07:46:01;;;;;;;14.10;5.25;;;;;;;22.87;43.11;100068.75;5130666;27;20134;-63
2023/10/01 07:48:28;;;;;;;5.75;4.70;;;;;;;23.08;42.22;100074.66;5122132;27;20027;-62
2023/10/01 07:50:58;;;;;;;7.97;5.05;;;;;;;23.29;42.05;100082.16;5122120;27;20482;-62
2023/10/01 07:53:31;;;;;;;8.38;5.20;;;;;;;23.39;41.96;100078.84;5120884;27;20380;-62
2023/10/01 07:55:59;;;;;;;12.88;5.60;;;;;;;23.42;41.78;100081.09;5102977;28;20047;-62
2023/10/01 07:58:25;;;;;;;8.73;5.10;;;;;;;23.46;41.92;100076.84;5121482;28;20034;-63
2023/10/01 08:00:59;;;;;;;6.18;4.72;;;;;;;23.59;41.92;100092.81;5121359;28;20069;-62
2023/10/01 08:06:05;;;;;;;9.82;6.35;;;;;;;24.13;40.60;100082.56;5122044;28;20218;-63
2023/10/01 08:08:47;;;;;;;11.13;5.18;;;;;;;24.42;39.84;100088.78;5121983;28;20088;-63
2023/10/01 08:13:57;;;;;;;9.43;4.75;;;;;;;24.86;38.43;100086.25;5121141;28;20054;-63
2023/10/01 08:16:24;;;;;;;6.95;4.60;;;;;;;24.80;37.84;100085.34;5121408;28;20059;-64
2023/10/01 08:18:57;;;;;;;7.15;4.63;;;;;;;24.92;38.17;100080.66;5126166;27;20197;-64
2023/10/01 08:21:30;;;;;;;6.13;4.20;;;;;;;25.03;37.49;100084.41;5125923;27;20040;-63
2023/10/01 08:23:57;;;;;;;8.45;4.78;;;;;;;24.92;37.23;100083.38;5126718;27;20031;-63
2023/10/01 08:29:07;;;;;;;7.15;4.68;;;;;;;24.44;38.13;100095.59;5138030;27;20355;-64
2023/10/01 08:32:38;;;;;;;8.95;4.82;;;;;;;24.24;38.74;100097.09;5138528;27;20035;-64
2023/10/01 08:34:27;;;;;;;6.80;4.53;;;;;;;23.89;39.93;100095.31;5118101;27;20114;-64
2023/10/01 08:36:55;;;;;;;6.90;4.60;;;;;;;23.89;39.26;100096.16;5138054;27;20244;-63
2023/10/01 08:39:33;;;;;;;8.07;4.85;;;;;;;23.86;39.91;100093.09;5138023;27;20035;-64
2023/10/01 08:42:13;;;;;;;10.20;4.65;;;;;;;23.79;39.86;100082.44;5137574;27;20035;-64
2023/10/01 08:44:51;;;;;;;9.48;5.45;;;;;;;23.80;39.91;100085.94;5138541;27;20443;-63
2023/10/01 08:47:35;;;;;;;10.00;5.22;;;;;;;23.86;40.55;100087.69;5138639;27;20043;-64
2023/10/01 08:52:57;;;;;;;9.50;5.25;;;;;;;23.81;40.89;100087.59;5138254;27;20066;-64
2023/10/01 08:55:24;;;;;;;7.28;5.50;;;;;;;23.91;41.01;100086.97;5137632;27;20283;-65
2023/10/01 08:57:53;;;;;;;11.15;5.40;;;;;;;24.03;40.96;100085.91;5138891;27;20039;-64
2023/10/01 09:00:21;;;;;;;11.02;4.50;;;;;;;24.11;39.99;100093.63;5137880;27;20084;-65
2023/10/01 09:03:10;;;;;;;7.80;4.70;;;;;;;24.27;40.03;100085.81;5141347;27;20275;-64
2023/10/01 09:05:36;;;;;;;11.55;5.00;;;;;;;24.44;39.49;100083.94;5134325;27;20336;-64
2023/10/01 09:08:20;;;;;;;7.03;5.07;;;;;;;24.51;39.24;100084.63;5124527;27;20080;-64
2023/10/01 09:10:50;;;;;;;7.30;4.97;;;;;;;24.66;39.22;100087.56;5124169;27;20035;-65
2023/10/01 09:13:21;;;;;;;7.88;5.38;;;;;;;24.74;39.89;100089.06;5124943;27;20039;-63
2023/10/01 09:15:47;;;;;;;6.57;4.82;;;;;;;24.79;38.68;100094.56;5124341;27;20039;-64
2023/10/01 09:18:20;;;;;;;8.95;5.05;;;;;;;24.83;38.60;100085.69;5124459;27;20363;-63
2023/10/01 09:23:56;;;;;;;7.55;5.15;;;;;;;24.96;39.10;100084.53;5124411;27;20981;-63
2023/10/01 09:26:53;;;;;;;6.32;4.72;;;;;;;24.91;38.47;100089.88;5124940;27;20046;-63
2023/10/01 09:29:25;;;;;;;8.00;5.15;;;;;;;25.06;39.27;100079.31;5123318;27;20244;-63
2023/10/01 09:31:58;;;;;;;6.35;4.80;;;;;;;25.23;38.52;100090.13;5126092;27;20367;-64
2023/10/01 09:34:33;;;;;;;7.25;4.85;;;;;;;25.40;37.84;100081.94;5138214;27;20046;-63
2023/10/01 09:37:35;;;;;;;7.20;5.32;;;;;;;25.49;37.49;100085.88;5122862;27;20031;-62
2023/10/01 09:42:55;;;;;;;6.80;4.95;;;;;;;25.44;37.43;100083.91;5122830;27;20038;-63
2023/10/01 09:45:26;;;;;;;8.30;4.78;;;;;;;25.30;37.09;100076.41;5123142;27;20367;-63
2023/10/01 09:48:04;;;;;;;7.60;4.85;;;;;;;25.34;37.28;100074.81;5122862;27;20355;-63
2023/10/01 09:50:41;;;;;;;6.40;4.70;;;;;;;25.35;37.19;100073.75;5122403;27;20107;-63
2023/10/01 09:53:15;;;;;;;7.60;4.45;;;;;;;25.29;37.08;100072.88;5132070;27;20232;-63
2023/10/01 09:55:47;;;;;;;11.32;4.97;;;;;;;25.42;37.92;100064.38;5123188;27;20264;-63
2023/10/01 09:58:25;;;;;;;8.98;5.38;;;;;;;25.52;37.31;100062.84;5124019;27;20039;-63
2023/10/01 10:00:55;;;;;;;11.68;4.88;;;;;;;25.58;35.67;100059.94;5124118;27;20271;-64
2023/10/01 10:03:21;;;;;;;6.95;4.25;;;;;;;25.72;36.19;100060.41;5123453;27;20094;-64
2023/10/01 10:05:47;;;;;;;8.60;4.63;;;;;;;25.66;35.22;100054.09;5125117;27;20047;-64
2023/10/01 10:08:26;;;;;;;5.35;4.50;;;;;;;25.63;35.50;100056.47;5140139;27;20030;-62
2023/10/01 10:10:55;;;;;;;9.32;4.78;;;;;;;25.59;35.02;100063.47;5123554;27;20272;-63
2023/10/01 10:13:38;;;;;;;5.85;4.70;;;;;;;25.65;35.59;100048.91;5132606;27;20048;-63
2023/10/01 10:16:28;;;;;;;6.95;4.63;;;;;;;25.78;35.64;100048.53;5122410;27;20069;-63
2023/10/01 10:19:10;;;;;;;4.82;4.32;;;;;;;25.88;34.74;100047.84;5132356;27;20048;-63
2023/10/01 10:24:34;;;;;;;4.93;4.30;;;;;;;26.04;33.75;100046.94;5123069;27;20054;-62
2023/10/01 10:27:09;;;;;;;6.10;4.75;;;;;;;26.06;34.37;100051.03;5124243;27;20073;-65
2023/10/01 10:29:46;;;;;;;6.57;4.90;;;;;;;26.13;34.47;100055.44;5122355;27;20062;-62
2023/10/01 10:32:13;;;;;;;6.10;4.20;;;;;;;26.24;34.92;100051.75;5123766;27;20372;-63
2023/10/01 10:34:47;;;;;;;5.70;4.30;;;;;;;26.35;34.11;100039.94;5124079;27;20105;-63
2023/10/01 10:40:14;;;;;;;8.60;5.88;;;;;;;26.20;33.68;100039.78;5140061;27;20050;-62
2023/10/01 10:42:39;;;;;;;6.82;5.20;;;;;;;26.26;33.72;100045.00;5132778;27;20198;-62
2023/10/01 10:45:19;;;;;;;6.05;4.85;;;;;;;26.32;34.09;100041.28;5122251;27;20032;-62
2023/10/01 10:48:03;;;;;;;8.63;7.22;;;;;;;26.31;33.27;100038.78;5122005;27;20032;-62
2023/10/01 10:50:53;;;;;;;7.22;6.07;;;;;;;26.27;33.84;100041.19;5132403;27;20043;-62
2023/10/01 10:53:29;;;;;;;6.03;4.38;;;;;;;26.25;33.09;100028.97;5121729;27;20035;-63
2023/10/01 10:56:14;;;;;;;4.95;4.07;;;;;;;26.36;33.69;100025.28;5122604;27;20043;-62
2023/10/01 10:59:01;;;;;;;7.55;4.65;;;;;;;26.49;33.83;100026.75;5121134;27;20089;-62
2023/10/01 11:01:43;;;;;;;9.55;5.10;;;;;;;26.66;32.86;100025.53;5122481;27;20047;-62
2023/10/01 11:04:09;;;;;;;6.03;5.40;;;;;;;26.76;32.25;100022.06;5123057;27;20061;-63
2023/10/01 11:07:01;;;;;;;7.93;4.72;;;;;;;26.92;33.26;100022.97;5127331;27;20221;-64
2023/10/01 11:09:27;;;;;;;7.68;4.60;;;;;;;26.97;32.18;100021.13;5120177;27;20035;-62
2023/10/01 11:11:53;;;;;;;6.07;4.35;;;;;;;26.96;32.08;100013.22;5130312;27;20344;-62
2023/10/01 11:14:20;;;;;;;7.78;6.22;;;;;;;26.76;32.30;100008.47;5120063;27;20037;-63
2023/10/01 11:16:48;;;;;;;8.35;5.50;;;;;;;26.70;32.66;100006.81;5121005;27;20247;-62
2023/10/01 11:19:16;;;;;;;5.80;4.57;;;;;;;26.65;32.23;100007.59;5120321;27;20035;-63
2023/10/01 11:21:56;;;;;;;8.02;5.25;;;;;;;26.59;32.53;100011.34;5130833;27;20055;-63
2023/10/01 11:24:29;;;;;;;10.90;7.35;;;;;;;26.41;32.46;100011.75;5121176;27;20032;-63
2023/10/01 11:27:43;;;;;;;9.23;5.72;;;;;;;26.45;32.61;100007.44;5121428;27;20038;-63
2023/10/01 11:30:28;;;;;;;6.15;5.22;;;;;;;26.49;33.08;99997.69;5121956;27;20106;-64
2023/10/01 11:35:40;;;;;;;8.30;4.82;;;;;;;26.76;32.75;99985.94;5121393;27;20047;-64
2023/10/01 11:38:19;;;;;;;7.60;4.85;;;;;;;26.88;33.24;99979.22;5121659;27;20032;-63
2023/10/01 11:43:36;;;;;;;7.75;5.05;;;;;;;27.13;32.13;99980.47;5121507;27;20236;-64
2023/10/01 11:46:20;;;;;;;6.15;4.47;;;;;;;27.17;31.79;99985.13;5122013;27;20351;-62
2023/10/01 11:48:59;;;;;;;9.52;5.90;;;;;;;27.20;31.86;99979.16;5132037;27;20114;-62
2023/10/01 11:52:02;;;;;;;7.38;6.38;;;;;;;27.18;31.97;99980.50;5121492;28;20241;-62
2023/10/01 11:54:52;;;;;;;5.22;4.72;;;;;;;27.12;31.51;99974.22;5121644;27;20458;-62
2023/10/01 11:57:22;;;;;;;7.13;4.80;;;;;;;27.09;32.02;99977.47;5122096;27;20035;-61
2023/10/01 11:59:55;;;;;;;5.70;4.22;;;;;;;26.96;31.16;99972.44;5122258;28;20124;-62
2023/10/01 12:02:31;;;;;;;5.40;4.50;;;;;;;26.83;30.97;99965.59;5124552;28;20035;-63
2023/10/01 12:04:59;;;;;;;8.65;5.10;;;;;;;26.84;31.60;99977.28;5121242;28;20046;-62
2023/10/01 12:07:33;;;;;;;8.57;4.97;;;;;;;26.78;31.91;99971.00;5122086;28;20355;-63
2023/10/01 12:10:04;;;;;;;6.10;4.47;;;;;;;26.67;31.81;99969.31;5122148;28;20102;-63
2023/10/01 12:12:39;;;;;;;6.95;6.07;;;;;;;26.62;31.37;99969.28;5121491;28;20032;-63
2023/10/01 12:17:51;;;;;;;6.97;4.90;;;;;;;26.47;30.79;99977.31;5121063;28;20082;-62
2023/10/01 12:20:22;;;;;;;4.72;4.13;;;;;;;26.33;30.71;99976.94;5121545;28;20055;-63
2023/10/01 12:26:00;;;;;;;5.95;4.65;;;;;;;25.67;32.74;99971.69;5085297;28;20047;-64
2023/10/01 12:28:29;;;;;;;7.50;4.68;;;;;;;25.59;32.69;99960.44;5124792;28;20035;-64
2023/10/01 12:31:00;;;;;;;5.63;4.35;;;;;;;25.36;33.34;99956.13;5125277;28;20043;-63
2023/10/01 12:33:40;;;;;;;5.15;4.65;;;;;;;25.26;35.31;99958.72;5120472;28;20039;-64
2023/10/01 12:36:32;;;;;;;5.15;4.30;;;;;;;25.16;34.79;99954.00;5121626;28;20050;-64
2023/10/01 12:44:32;;;;;;;;;;;;;;;25.39;33.90;99948.31;5130314;28;20054;-64
2023/10/01 12:47:02;;;;;;;7.53;4.75;;;;;;;25.43;33.66;99938.59;5121581;28;19961;-64
2023/10/01 12:49:35;;;;;;;9.48;5.03;;;;;;;25.53;33.42;99939.78;5122208;28;20027;-64
2023/10/01 12:52:01;;;;;;;6.65;5.05;;;;;;;25.59;32.64;99939.56;5121332;28;20035;-64